createdAt,value
2019-01-26T00:01:06.184Z,96344.13
2019-01-26T00:03:37.991Z,96353.33
2019-01-26T00:06:09.978Z,96358.69
2019-01-26T00:08:41.709Z,96352.78
2019-01-26T00:11:13.533Z,96350.58
2019-01-26T00:13:45.428Z,96353.61
2019-01-26T00:16:21.131Z,96351.66
2019-01-26T00:18:50.704Z,96343.59
2019-01-26T00:21:22.620Z,96336.31
2019-01-26T00:23:54.424Z,96343.67
2019-01-26T00:26:26.400Z,96335.48
2019-01-26T00:28:58.539Z,96335.11
2019-01-26T00:31:30.611Z,96330.88
2019-01-26T00:34:02.426Z,96320.64
2019-01-26T00:36:34.249Z,96311.37
2019-01-26T00:39:09.570Z,96312.83
2019-01-26T00:41:41.381Z,96306.92
2019-01-26T00:44:13.203Z,96298.65
2019-01-26T00:46:45.111Z,96288.72
2019-01-26T00:49:17.178Z,96292.95
2019-01-26T00:51:49.027Z,96295.33
2019-01-26T00:54:20.772Z,96294.78
2019-01-26T00:56:52.594Z,96283.93
2019-01-26T00:59:24.404Z,96282.27
2019-01-26T01:01:56.298Z,96274.00
2019-01-26T01:04:28.198Z,96271.67
2019-01-26T01:07:00.008Z,96270.20
2019-01-26T01:09:31.897Z,96272.13
2019-01-26T01:12:03.863Z,96264.41
2019-01-26T01:14:35.678Z,96267.92
2019-01-26T01:17:07.693Z,96269.00
2019-01-26T01:19:39.510Z,96278.23
2019-01-26T01:22:11.668Z,96278.58
2019-01-26T01:24:43.492Z,96278.20
2019-01-26T01:27:15.392Z,96281.44
2019-01-26T01:29:47.210Z,96270.30
2019-01-26T01:32:18.963Z,96267.93
2019-01-26T01:34:50.835Z,96281.35
2019-01-26T01:37:22.689Z,96278.86
2019-01-26T01:39:54.492Z,96269.75
2019-01-26T01:42:26.391Z,96271.59
2019-01-26T01:44:58.452Z,96273.16
2019-01-26T01:47:30.281Z,96268.27
2019-01-26T01:50:02.082Z,96261.20
2019-01-26T01:52:33.989Z,96256.34
2019-01-26T01:55:07.166Z,96263.77
2019-01-26T01:57:39.086Z,96266.52
2019-01-26T02:00:20.951Z,96255.59
2019-01-26T02:02:53.193Z,96249.23
2019-01-26T02:05:24.944Z,96240.79
2019-01-26T02:07:56.765Z,96240.30
2019-01-26T02:10:28.724Z,96238.84
2019-01-26T02:13:00.537Z,96241.20
2019-01-26T02:15:32.426Z,96243.44
2019-01-26T02:18:04.555Z,96240.48
2019-01-26T02:20:36.370Z,96243.05
2019-01-26T02:23:08.348Z,96231.45
2019-01-26T02:25:40.310Z,96231.27
2019-01-26T02:28:12.144Z,96232.94
2019-01-26T02:30:44.151Z,96234.75
2019-01-26T02:33:15.949Z,96225.64
2019-01-26T02:35:48.192Z,96212.84
2019-01-26T02:38:20.065Z,96218.95
2019-01-26T02:40:52.353Z,96220.31
2019-01-26T02:43:24.262Z,96207.70
2019-01-26T02:45:56.071Z,96206.78
2019-01-26T02:48:27.969Z,96206.69
2019-01-26T02:50:59.919Z,96205.86
2019-01-26T02:53:31.669Z,96200.72
2019-01-26T02:56:03.802Z,96192.79
2019-01-26T02:58:35.549Z,96189.17
2019-01-26T03:01:07.369Z,96198.79
2019-01-26T03:03:39.120Z,96198.18
2019-01-26T03:06:12.207Z,96199.39
2019-01-26T03:08:44.183Z,96193.39
2019-01-26T03:11:15.911Z,96197.30
2019-01-26T03:13:47.753Z,96193.95
2019-01-26T03:16:19.570Z,96198.27
2019-01-26T03:18:51.385Z,96191.59
2019-01-26T03:21:23.130Z,96192.21
2019-01-26T03:23:54.883Z,96190.37
2019-01-26T03:26:27.264Z,96195.66
2019-01-26T03:28:59.017Z,96187.39
2019-01-26T03:31:30.821Z,96186.81
2019-01-26T03:34:02.635Z,96182.23
2019-01-26T03:36:34.518Z,96178.91
2019-01-26T03:39:09.641Z,96174.56
2019-01-26T03:41:41.454Z,96170.76
2019-01-26T03:44:13.282Z,96170.39
2019-01-26T03:46:45.206Z,96176.31
2019-01-26T03:49:17.352Z,96167.23
2019-01-26T03:51:49.199Z,96165.59
2019-01-26T03:54:21.027Z,96165.57
2019-01-26T03:56:53.091Z,96158.84
2019-01-26T03:59:25.023Z,96148.38
2019-01-26T04:01:56.905Z,96149.70
2019-01-26T04:04:28.761Z,96150.03
2019-01-26T04:07:00.654Z,96150.31
2019-01-26T04:09:32.475Z,96146.91
2019-01-26T04:12:04.425Z,96143.98
2019-01-26T04:14:36.322Z,96148.44
2019-01-26T04:17:08.210Z,96155.72
2019-01-26T04:19:40.268Z,96156.42
2019-01-26T04:22:13.040Z,96159.58
2019-01-26T04:24:44.861Z,96164.19
2019-01-26T04:27:17.580Z,96156.41
2019-01-26T04:29:49.393Z,96160.52
2019-01-26T04:32:21.377Z,96163.28
2019-01-26T04:34:53.124Z,96157.24
2019-01-26T04:37:25.014Z,96157.70
2019-01-26T04:39:56.768Z,96162.64
2019-01-26T04:42:28.500Z,96155.55
2019-01-26T04:45:00.258Z,96161.41
2019-01-26T04:47:32.065Z,96142.23
2019-01-26T04:50:04.777Z,96139.84
2019-01-26T04:52:36.501Z,96138.37
2019-01-26T04:55:08.719Z,96146.35
2019-01-26T04:57:40.587Z,96141.69
2019-01-26T05:00:24.907Z,96137.59
2019-01-26T05:02:56.849Z,96139.30
2019-01-26T05:05:28.675Z,96143.02
2019-01-26T05:08:00.492Z,96143.77
2019-01-26T05:10:32.336Z,96146.89
2019-01-26T05:13:04.381Z,96134.59
2019-01-26T05:15:36.189Z,96125.04
2019-01-26T05:18:08.426Z,96130.66
2019-01-26T05:20:40.416Z,96128.28
2019-01-26T05:23:12.475Z,96128.91
2019-01-26T05:25:44.309Z,96139.97
2019-01-26T05:28:16.139Z,96129.00
2019-01-26T05:30:48.036Z,96129.69
2019-01-26T05:33:19.910Z,96135.27
2019-01-26T05:35:51.990Z,96134.43
2019-01-26T05:38:23.786Z,96137.84
2019-01-26T05:40:55.597Z,96140.89
2019-01-26T05:43:27.395Z,96140.02
2019-01-26T05:45:59.454Z,96138.41
2019-01-26T05:48:31.257Z,96143.19
2019-01-26T05:51:03.071Z,96138.66
2019-01-26T05:53:35.911Z,96138.95
2019-01-26T05:56:07.740Z,96141.44
2019-01-26T05:58:39.526Z,96142.11
2019-01-26T06:01:11.283Z,96136.53
2019-01-26T06:03:43.331Z,96149.03
2019-01-26T06:06:15.082Z,96147.41
2019-01-26T06:08:47.162Z,96141.35
2019-01-26T06:11:18.975Z,96147.45
2019-01-26T06:13:50.775Z,96147.05
2019-01-26T06:16:22.603Z,96140.23
2019-01-26T06:18:54.326Z,96150.27
2019-01-26T06:21:26.145Z,96147.48
2019-01-26T06:23:57.883Z,96138.77
2019-01-26T06:26:29.785Z,96134.97
2019-01-26T06:29:01.583Z,96135.26
2019-01-26T06:31:33.890Z,96119.78
2019-01-26T06:34:06.000Z,96131.61
2019-01-26T06:36:37.831Z,96129.92
2019-01-26T06:39:09.951Z,96138.70
2019-01-26T06:41:41.702Z,96135.33
2019-01-26T06:44:13.433Z,96139.63
2019-01-26T06:46:45.276Z,96133.23
2019-01-26T06:49:17.008Z,96130.88
2019-01-26T06:51:54.821Z,96132.91
2019-01-26T06:54:26.620Z,96134.43
2019-01-26T06:56:58.601Z,96133.41
2019-01-26T06:59:30.392Z,96133.17
2019-01-26T07:02:02.127Z,96136.28
2019-01-26T07:04:54.153Z,96131.60
2019-01-26T07:07:26.284Z,96128.29
2019-01-26T07:09:58.106Z,96137.83
2019-01-26T07:12:29.985Z,96137.70
2019-01-26T07:15:01.708Z,96138.73
2019-01-26T07:17:33.521Z,96134.81
2019-01-26T07:20:07.778Z,96141.88
2019-01-26T07:22:39.664Z,96139.28
2019-01-26T07:25:11.629Z,96139.78
2019-01-26T07:27:43.582Z,96151.15
2019-01-26T07:30:18.492Z,96150.69
2019-01-26T07:32:50.378Z,96147.73
2019-01-26T07:35:23.154Z,96154.64
2019-01-26T07:37:55.054Z,96146.73
2019-01-26T07:40:26.898Z,96149.99
2019-01-26T07:42:58.716Z,96147.51
2019-01-26T07:45:31.826Z,96151.05
2019-01-26T07:48:03.778Z,96145.91
2019-01-26T07:50:35.650Z,96152.39
2019-01-26T07:53:07.539Z,96150.48
2019-01-26T07:55:39.574Z,96152.30
2019-01-26T07:58:11.467Z,96143.63
2019-01-26T08:00:43.264Z,96147.28
2019-01-26T08:03:16.041Z,96145.16
2019-01-26T08:05:47.838Z,96139.39
2019-01-26T08:08:19.889Z,96134.94
2019-01-26T08:10:51.611Z,96130.25
2019-01-26T08:13:23.574Z,96137.18
2019-01-26T08:15:55.365Z,96142.23
2019-01-26T08:18:27.423Z,96139.22
2019-01-26T08:20:59.144Z,96139.09
2019-01-26T08:23:31.048Z,96139.69
2019-01-26T08:26:02.854Z,96137.36
2019-01-26T08:28:34.593Z,96132.39
2019-01-26T08:31:06.459Z,96135.78
2019-01-26T08:33:38.266Z,96128.87
2019-01-26T08:36:10.200Z,96126.41
2019-01-26T08:38:41.934Z,96131.96
2019-01-26T08:41:13.664Z,96129.14
2019-01-26T08:43:45.458Z,96133.11
2019-01-26T08:46:17.351Z,96119.52
2019-01-26T08:48:49.162Z,96123.43
2019-01-26T08:51:20.975Z,96121.20
2019-01-26T08:53:52.717Z,96123.19
2019-01-26T08:56:24.451Z,96122.13
2019-01-26T08:58:56.183Z,96122.73
2019-01-26T09:01:27.979Z,96115.57
2019-01-26T09:04:09.458Z,96123.09
2019-01-26T09:06:46.864Z,96110.88
2019-01-26T09:09:18.752Z,96110.41
2019-01-26T09:11:50.547Z,96113.12
2019-01-26T09:14:22.414Z,96105.70
2019-01-26T09:16:54.144Z,96111.34
2019-01-26T09:19:25.951Z,96106.05
2019-01-26T09:21:57.680Z,96107.36
2019-01-26T09:24:30.632Z,96104.88
2019-01-26T09:27:02.509Z,96096.91
2019-01-26T09:29:34.314Z,96100.08
2019-01-26T09:32:06.275Z,96096.80
2019-01-26T09:34:38.016Z,96095.04
2019-01-26T09:37:09.874Z,96096.08
2019-01-26T09:39:41.614Z,96098.92
2019-01-26T09:42:13.474Z,96097.98
2019-01-26T09:44:45.309Z,96101.27
2019-01-26T09:47:17.184Z,96106.80
2019-01-26T09:49:48.988Z,96111.30
2019-01-26T09:52:20.942Z,96117.06
2019-01-26T09:54:52.954Z,96110.37
2019-01-26T09:57:25.005Z,96112.81
2019-01-26T09:59:56.734Z,96111.77
2019-01-26T10:02:28.457Z,96115.44
2019-01-26T10:05:00.278Z,96117.20
2019-01-26T10:07:32.156Z,96109.53
2019-01-26T10:10:04.277Z,96118.14
2019-01-26T10:12:36.078Z,96117.09
2019-01-26T10:15:10.777Z,96116.73
2019-01-26T10:17:46.004Z,96123.09
2019-01-26T10:20:25.337Z,96121.91
2019-01-26T10:22:57.293Z,96119.68
2019-01-26T10:25:29.256Z,96111.08
2019-01-26T10:28:01.071Z,96113.89
2019-01-26T10:30:38.997Z,96114.59
2019-01-26T10:33:10.798Z,96113.08
2019-01-26T10:36:16.742Z,96111.66
2019-01-26T10:38:53.688Z,96111.53
2019-01-26T10:41:31.858Z,96096.70
2019-01-26T10:44:03.759Z,96098.56
2019-01-26T10:46:35.508Z,96092.11
2019-01-26T10:49:07.726Z,96085.86
2019-01-26T10:51:39.537Z,96087.15
2019-01-26T10:54:11.345Z,96082.09
2019-01-26T10:56:43.299Z,96088.80
2019-01-26T10:59:15.089Z,96077.49
2019-01-26T11:01:46.991Z,96066.19
2019-01-26T11:04:19.129Z,96068.87
2019-01-26T11:06:51.019Z,96062.63
2019-01-26T11:09:22.896Z,96063.11
2019-01-26T11:11:54.624Z,96064.16
2019-01-26T11:14:26.424Z,96060.87
2019-01-26T11:16:58.231Z,96065.58
2019-01-26T11:19:30.923Z,96057.21
2019-01-26T11:22:02.655Z,96058.97
2019-01-26T11:24:34.787Z,96056.02
2019-01-26T11:27:06.778Z,96054.48
2019-01-26T11:29:38.991Z,96044.12
2019-01-26T11:32:10.868Z,96050.60
2019-01-26T11:34:42.655Z,96040.44
2019-01-26T11:37:14.531Z,96039.16
2019-01-26T11:39:50.359Z,96039.63
2019-01-26T11:42:22.162Z,96044.12
2019-01-26T11:45:18.931Z,96037.66
2019-01-26T11:47:50.797Z,96035.89
2019-01-26T11:50:29.338Z,96040.33
2019-01-26T11:53:01.213Z,96036.70
2019-01-26T11:55:48.842Z,96035.27
2019-01-26T11:58:21.171Z,96025.84
2019-01-26T12:01:20.702Z,96025.22
2019-01-26T12:04:00.689Z,96017.77
2019-01-26T12:06:35.071Z,96022.16
2019-01-26T12:09:09.926Z,96016.05
2019-01-26T12:11:41.736Z,96012.88
2019-01-26T12:14:13.621Z,96011.31
2019-01-26T12:16:45.515Z,96007.87
2019-01-26T12:19:22.322Z,96002.33
2019-01-26T12:21:50.658Z,95997.38
2019-01-26T12:24:22.397Z,96003.16
2019-01-26T12:26:54.518Z,95992.22
2019-01-26T12:29:26.241Z,95994.43
2019-01-26T12:31:58.099Z,95984.50
2019-01-26T12:34:29.920Z,95984.95
2019-01-26T12:37:01.708Z,95983.91
2019-01-26T12:39:34.405Z,95983.18
2019-01-26T12:42:06.267Z,95983.18
2019-01-26T12:44:38.098Z,95984.80
2019-01-26T12:47:16.785Z,95984.15
2019-01-26T12:49:43.395Z,95983.71
2019-01-26T12:52:15.268Z,95979.84
2019-01-26T12:54:47.090Z,95990.34
2019-01-26T12:57:18.879Z,95979.94
2019-01-26T12:59:50.617Z,95976.66
2019-01-26T13:02:22.473Z,95974.92
2019-01-26T13:04:54.360Z,95978.88
2019-01-26T13:07:26.176Z,95975.57
2019-01-26T13:09:58.483Z,95973.18
2019-01-26T13:12:30.340Z,95965.07
2019-01-26T13:15:02.058Z,95956.62
2019-01-26T13:17:33.850Z,95962.48
2019-01-26T13:20:07.380Z,95962.80
2019-01-26T13:22:39.958Z,95956.47
2019-01-26T13:25:14.007Z,95955.37
2019-01-26T13:27:46.055Z,95952.66
2019-01-26T13:30:19.725Z,95950.61
2019-01-26T13:32:51.674Z,95948.41
2019-01-26T13:35:23.552Z,95940.94
2019-01-26T13:37:55.414Z,95944.91
2019-01-26T13:40:27.355Z,95941.84
2019-01-26T13:42:59.402Z,95943.97
2019-01-26T13:45:31.348Z,95941.61
2019-01-26T13:48:03.064Z,95943.93
2019-01-26T13:50:34.940Z,95941.09
2019-01-26T13:53:07.000Z,95940.31
2019-01-26T13:55:38.893Z,95936.66
2019-01-26T13:58:10.780Z,95937.80
2019-01-26T14:00:42.720Z,95927.92
2019-01-26T14:03:14.523Z,95926.22
2019-01-26T14:05:46.355Z,95924.22
2019-01-26T14:08:18.144Z,95926.98
2019-01-26T14:10:49.943Z,95928.67
2019-01-26T14:13:21.827Z,95926.27
2019-01-26T14:15:53.699Z,95930.28
2019-01-26T14:18:25.581Z,95927.45
2019-01-26T14:20:57.648Z,95928.51
2019-01-26T14:23:29.699Z,95931.73
2019-01-26T14:26:01.569Z,95931.77
2019-01-26T14:28:33.611Z,95929.41
2019-01-26T14:31:08.520Z,95915.91
2019-01-26T14:33:40.382Z,95912.47
2019-01-26T14:36:12.259Z,95918.25
2019-01-26T14:38:44.122Z,95902.55
2019-01-26T14:41:16.002Z,95909.72
2019-01-26T14:43:47.861Z,95911.59
2019-01-26T14:46:19.665Z,95907.61
2019-01-26T14:48:51.478Z,95899.74
2019-01-26T14:51:23.285Z,95898.92
2019-01-26T14:53:55.158Z,95902.16
2019-01-26T14:56:27.051Z,95904.33
2019-01-26T14:58:59.176Z,95909.59
2019-01-26T15:01:30.974Z,95901.76
2019-01-26T15:04:02.965Z,95901.69
2019-01-26T15:06:34.696Z,95900.27
2019-01-26T15:09:09.882Z,95900.86
2019-01-26T15:11:41.605Z,95893.12
2019-01-26T15:14:13.480Z,95900.47
2019-01-26T15:16:46.188Z,95895.02
2019-01-26T15:19:17.916Z,95898.86
2019-01-26T15:21:49.953Z,95897.31
2019-01-26T15:24:21.926Z,95896.54
2019-01-26T15:26:53.653Z,95886.70
2019-01-26T15:29:25.461Z,95883.84
2019-01-26T15:31:57.331Z,95881.64
2019-01-26T15:34:29.122Z,95879.39
2019-01-26T15:37:00.848Z,95880.84
2019-01-26T15:39:32.812Z,95875.94
2019-01-26T15:42:04.753Z,95871.92
2019-01-26T15:44:36.560Z,95869.53
2019-01-26T15:47:08.668Z,95869.80
2019-01-26T15:49:40.457Z,95863.34
2019-01-26T15:52:12.412Z,95860.27
2019-01-26T15:54:44.139Z,95858.62
2019-01-26T15:57:16.019Z,95850.94
2019-01-26T15:59:53.403Z,95852.06
2019-01-26T16:02:21.336Z,95853.88
2019-01-26T16:04:53.063Z,95851.89
2019-01-26T16:07:24.944Z,95848.99
2019-01-26T16:09:56.988Z,95842.91
2019-01-26T16:12:28.836Z,95845.65
2019-01-26T16:15:00.708Z,95837.89
2019-01-26T16:17:32.441Z,95842.62
2019-01-26T16:20:04.967Z,95840.37
2019-01-26T16:22:36.695Z,95835.72
2019-01-26T16:25:09.851Z,95834.97
2019-01-26T16:27:41.793Z,95835.89
2019-01-26T16:30:20.523Z,95831.02
2019-01-26T16:32:52.586Z,95826.94
2019-01-26T16:35:24.567Z,95820.34
2019-01-26T16:37:56.520Z,95826.53
2019-01-26T16:40:31.740Z,95827.11
2019-01-26T16:43:03.571Z,95813.91
2019-01-26T16:45:38.283Z,95813.78
2019-01-26T16:48:13.426Z,95815.20
2019-01-26T16:50:45.281Z,95811.06
2019-01-26T16:53:17.389Z,95811.95
2019-01-26T16:55:49.311Z,95815.63
2019-01-26T16:58:21.201Z,95807.48
2019-01-26T17:00:56.831Z,95802.00
2019-01-26T17:03:28.794Z,95801.16
2019-01-26T17:06:00.733Z,95794.19
2019-01-26T17:08:32.550Z,95790.89
2019-01-26T17:11:04.421Z,95792.63
2019-01-26T17:13:36.369Z,95783.06
2019-01-26T17:16:08.239Z,95775.61
2019-01-26T17:18:46.023Z,95777.32
2019-01-26T17:21:13.450Z,95782.94
2019-01-26T17:23:45.177Z,95774.38
2019-01-26T17:26:16.915Z,95778.52
2019-01-26T17:28:49.087Z,95769.66
2019-01-26T17:31:21.020Z,95771.27
2019-01-26T17:33:53.012Z,95770.02
2019-01-26T17:36:25.314Z,95768.13
2019-01-26T17:38:57.060Z,95762.63
2019-01-26T17:41:28.793Z,95761.64
2019-01-26T17:44:00.663Z,95763.53
2019-01-26T17:46:32.391Z,95762.41
2019-01-26T17:49:04.709Z,95761.88
2019-01-26T17:51:36.512Z,95760.67
2019-01-26T17:54:09.632Z,95754.72
2019-01-26T17:56:41.432Z,95756.44
2019-01-26T17:59:13.238Z,95742.84
2019-01-26T18:01:45.364Z,95740.09
2019-01-26T18:04:17.678Z,95737.31
2019-01-26T18:06:49.475Z,95735.73
2019-01-26T18:09:21.215Z,95731.23
2019-01-26T18:11:52.938Z,95733.20
2019-01-26T18:14:24.681Z,95729.11
2019-01-26T18:16:56.589Z,95724.39
2019-01-26T18:19:28.403Z,95718.95
2019-01-26T18:22:01.171Z,95718.31
2019-01-26T18:24:32.989Z,95716.82
2019-01-26T18:27:04.799Z,95716.25
2019-01-26T18:29:37.599Z,95718.72
2019-01-26T18:32:09.777Z,95715.33
2019-01-26T18:34:41.513Z,95711.81
2019-01-26T18:37:13.391Z,95710.05
2019-01-26T18:39:45.197Z,95703.91
2019-01-26T18:42:17.890Z,95705.14
2019-01-26T18:44:49.643Z,95693.23
2019-01-26T18:47:21.515Z,95691.53
2019-01-26T18:49:53.238Z,95690.77
2019-01-26T18:52:25.038Z,95690.77
2019-01-26T18:54:57.529Z,95685.64
2019-01-26T18:57:30.868Z,95685.17
2019-01-26T19:00:02.669Z,95678.20
2019-01-26T19:02:34.383Z,95676.50
2019-01-26T19:05:12.261Z,95673.75
2019-01-26T19:07:44.128Z,95675.05
2019-01-26T19:10:16.153Z,95672.25
2019-01-26T19:12:48.208Z,95667.26
2019-01-26T19:15:22.656Z,95669.51
2019-01-26T19:17:54.718Z,95667.54
2019-01-26T19:20:26.529Z,95670.69
2019-01-26T19:22:58.626Z,95662.08
2019-01-26T19:25:30.506Z,95659.83
2019-01-26T19:28:02.298Z,95659.01
2019-01-26T19:30:35.089Z,95651.34
2019-01-26T19:33:06.953Z,95650.54
2019-01-26T19:35:38.850Z,95647.40
2019-01-26T19:38:10.650Z,95645.20
2019-01-26T19:40:42.516Z,95643.56
2019-01-26T19:43:14.239Z,95633.39
2019-01-26T19:45:49.981Z,95637.00
2019-01-26T19:48:22.757Z,95623.75
2019-01-26T19:50:54.641Z,95620.33
2019-01-26T19:53:26.497Z,95619.58
2019-01-26T19:55:58.626Z,95608.31
2019-01-26T19:58:30.415Z,95609.35
2019-01-26T20:01:02.140Z,95606.95
2019-01-26T20:03:33.942Z,95598.42
2019-01-26T20:06:06.182Z,95593.08
2019-01-26T20:08:38.035Z,95591.71
2019-01-26T20:11:09.904Z,95582.63
2019-01-26T20:13:41.697Z,95589.12
2019-01-26T20:16:13.500Z,95587.39
2019-01-26T20:18:45.295Z,95572.45
2019-01-26T20:21:17.703Z,95573.11
2019-01-26T20:23:49.660Z,95573.75
2019-01-26T20:26:21.545Z,95563.55
2019-01-26T20:28:53.338Z,95559.39
2019-01-26T20:31:25.145Z,95552.03
2019-01-26T20:33:56.855Z,95551.95
2019-01-26T20:36:28.746Z,95554.84
2019-01-26T20:39:00.541Z,95551.90
2019-01-26T20:41:33.482Z,95550.95
2019-01-26T20:44:05.545Z,95553.19
2019-01-26T20:46:37.597Z,95549.03
2019-01-26T20:49:09.614Z,95545.22
2019-01-26T20:51:41.485Z,95543.42
2019-01-26T20:54:13.366Z,95541.30
2019-01-26T20:56:45.249Z,95536.45
2019-01-26T20:59:17.064Z,95529.14
2019-01-26T21:01:48.885Z,95511.71
2019-01-26T21:04:20.783Z,95508.77
2019-01-26T21:06:52.665Z,95502.07
2019-01-26T21:09:24.382Z,95492.06
2019-01-26T21:11:56.188Z,95487.66
2019-01-26T21:14:27.908Z,95482.73
2019-01-26T21:16:59.714Z,95476.20
2019-01-26T21:19:31.426Z,95478.05
2019-01-26T21:22:03.236Z,95468.54
2019-01-26T21:24:35.024Z,95458.80
2019-01-26T21:27:06.899Z,95454.83
2019-01-26T21:29:38.695Z,95450.41
2019-01-26T21:32:10.838Z,95449.14
2019-01-26T21:34:43.536Z,95446.73
2019-01-26T21:37:15.326Z,95447.20
2019-01-26T21:39:47.132Z,95437.64
2019-01-26T21:42:18.940Z,95440.55
2019-01-26T21:44:50.694Z,95429.67
2019-01-26T21:47:22.529Z,95433.27
2019-01-26T21:49:54.324Z,95423.45
2019-01-26T21:52:26.139Z,95417.66
2019-01-26T21:54:57.851Z,95411.84
2019-01-26T21:57:29.719Z,95402.19
2019-01-26T22:00:01.436Z,95397.31
2019-01-26T22:02:33.310Z,95396.48
2019-01-26T22:05:05.980Z,95395.59
2019-01-26T22:07:37.774Z,95389.00
2019-01-26T22:10:12.884Z,95390.63
2019-01-26T22:12:46.095Z,95382.99
2019-01-26T22:15:20.347Z,95379.81
2019-01-26T22:17:52.581Z,95376.41
2019-01-26T22:20:27.155Z,95374.59
2019-01-26T22:22:59.994Z,95383.71
2019-01-26T22:25:31.866Z,95375.89
2019-01-26T22:28:03.733Z,95379.71
2019-01-26T22:30:36.125Z,95383.10
2019-01-26T22:33:08.079Z,95378.48
2019-01-26T22:35:39.866Z,95371.42
2019-01-26T22:38:11.734Z,95368.82
2019-01-26T22:40:43.518Z,95361.38
2019-01-26T22:43:15.266Z,95353.44
2019-01-26T22:45:47.045Z,95350.50
2019-01-26T22:48:20.131Z,95340.05
2019-01-26T22:50:52.025Z,95337.45
2019-01-26T22:53:23.916Z,95331.27
2019-01-26T22:55:55.686Z,95329.09
2019-01-26T22:58:27.701Z,95332.02
2019-01-26T23:01:33.094Z,95324.58
2019-01-26T23:04:40.635Z,95319.11
2019-01-26T23:07:31.503Z,95310.27
2019-01-26T23:10:53.757Z,95306.41
2019-01-26T23:14:30.997Z,95301.42
2019-01-26T23:17:40.845Z,95306.89
2019-01-26T23:20:50.908Z,95290.93
2019-01-26T23:24:12.741Z,95297.05
2019-01-26T23:27:23.938Z,95276.78
2019-01-26T23:30:14.082Z,95261.22
2019-01-26T23:32:49.260Z,95259.57
2019-01-26T23:35:21.399Z,95256.50
2019-01-26T23:37:53.207Z,95250.90
2019-01-26T23:40:26.198Z,95245.73
2019-01-26T23:42:57.931Z,95227.70
2019-01-26T23:45:29.736Z,95224.66
2019-01-26T23:48:01.652Z,95226.95
2019-01-26T23:50:33.385Z,95224.63
2019-01-26T23:53:05.422Z,95218.48
2019-01-26T23:55:38.444Z,95217.63
2019-01-26T23:58:10.238Z,95212.98
